Terminal Aerodrome Forecast
Issued by NWS Cleveland, OH

Home | Current Version | Previous Version | Text Only | Print | Product List | Glossary Off
Versions: 1 2 3 4 5 6 7 8 9 10 11 12 13 14 15 16 17

360
FTUS41 KCLE 090533
TAFCAK
TAF
KCAK 090533Z 0906/1006 20007KT P6SM SCT250
     FM091500 20010KT P6SM BKN120
     FM092200 23010KT P6SM VCSH OVC080
     FM100200 24010KT 4SM -SHSN BKN015=

USA.gov is the U.S. government's official web portal to all federal, state and local government web resources and services.